sensor_id;sensor_type;location;lat;lon;timestamp;pressure;altitude;pressure_sealevel;temperature;humidity
60437;BME280;46289;51.992;4.498;2023-03-04T00:01:20;102978.53;;;5.32;73.08
60437;BME280;46289;51.992;4.498;2023-03-04T00:03:31;102983.00;;;5.37;72.96
60437;BME280;46289;51.992;4.498;2023-03-04T00:05:36;102986.31;;;5.28;73.30
60437;BME280;46289;51.992;4.498;2023-03-04T00:07:40;102984.66;;;5.32;73.36
60437;BME280;46289;51.992;4.498;2023-03-04T00:09:45;102983.81;;;5.33;73.30
60437;BME280;46289;51.992;4.498;2023-03-04T00:11:53;102989.84;;;5.31;72.99
60437;BME280;46289;51.992;4.498;2023-03-04T00:13:58;102995.00;;;5.29;73.05
60437;BME280;46289;51.992;4.498;2023-03-04T00:16:03;102991.56;;;5.30;73.28
60437;BME280;46289;51.992;4.498;2023-03-04T00:18:08;102989.06;;;5.36;72.78
60437;BME280;46289;51.992;4.498;2023-03-04T00:20:19;103000.28;;;5.31;73.21
60437;BME280;46289;51.992;4.498;2023-03-04T00:22:24;102985.47;;;5.28;73.33
60437;BME280;46289;51.992;4.498;2023-03-04T00:24:28;102991.53;;;5.28;73.75
60437;BME280;46289;51.992;4.498;2023-03-04T00:26:36;102990.75;;;5.34;73.75
60437;BME280;46289;51.992;4.498;2023-03-04T00:28:48;102990.78;;;5.36;73.33
60437;BME280;46289;51.992;4.498;2023-03-04T00:30:53;102981.22;;;5.35;73.31
60437;BME280;46289;51.992;4.498;2023-03-04T00:32:58;102984.66;;;5.34;73.43
60437;BME280;46289;51.992;4.498;2023-03-04T00:35:04;102984.66;;;5.34;73.41
60437;BME280;46289;51.992;4.498;2023-03-04T00:37:08;102982.88;;;5.30;73.61
60437;BME280;46289;51.992;4.498;2023-03-04T00:39:13;102982.03;;;5.31;73.27
60437;BME280;46289;51.992;4.498;2023-03-04T00:41:19;102983.72;;;5.28;73.39
60437;BME280;46289;51.992;4.498;2023-03-04T00:43:23;102991.59;;;5.32;73.75
60437;BME280;46289;51.992;4.498;2023-03-04T00:45:31;102983.84;;;5.35;73.46
60437;BME280;46289;51.992;4.498;2023-03-04T00:47:36;102982.06;;;5.32;73.61
60437;BME280;46289;51.992;4.498;2023-03-04T00:49:40;102976.75;;;5.27;73.85
60437;BME280;46289;51.992;4.498;2023-03-04T00:51:46;102975.00;;;5.26;73.93
60437;BME280;46289;51.992;4.498;2023-03-04T00:53:51;102980.25;;;5.28;73.83
60437;BME280;46289;51.992;4.498;2023-03-04T00:55:56;102977.59;;;5.26;73.88
60437;BME280;46289;51.992;4.498;2023-03-04T00:58:01;102970.72;;;5.32;73.90
60437;BME280;46289;51.992;4.498;2023-03-04T01:00:08;102979.31;;;5.24;74.04
60437;BME280;46289;51.992;4.498;2023-03-04T01:02:15;102982.03;;;5.31;73.90
60437;BME280;46289;51.992;4.498;2023-03-04T01:04:20;102989.75;;;5.24;74.24
60437;BME280;46289;51.992;4.498;2023-03-04T01:06:26;102984.50;;;5.21;74.46
60437;BME280;46289;51.992;4.498;2023-03-04T01:08:30;102988.81;;;5.21;74.57
60437;BME280;46289;51.992;4.498;2023-03-04T01:10:35;102985.31;;;5.20;74.41
60437;BME280;46289;51.992;4.498;2023-03-04T01:12:41;102989.72;;;5.21;74.40
60437;BME280;46289;51.992;4.498;2023-03-04T01:14:46;102989.81;;;5.27;73.41
60437;BME280;46289;51.992;4.498;2023-03-04T01:16:51;102985.31;;;5.20;73.38
60437;BME280;46289;51.992;4.498;2023-03-04T01:18:58;102980.13;;;5.20;73.21
60437;BME280;46289;51.992;4.498;2023-03-04T01:21:04;102974.06;;;5.23;72.60
60437;BME280;46289;51.992;4.498;2023-03-04T01:23:09;102984.50;;;5.21;72.52
60437;BME280;46289;51.992;4.498;2023-03-04T01:25:14;102971.47;;;5.21;72.92
60437;BME280;46289;51.992;4.498;2023-03-04T01:27:18;102968.94;;;5.27;72.52
60437;BME280;46289;51.992;4.498;2023-03-04T01:29:23;102961.94;;;5.25;72.16
60437;BME280;46289;51.992;4.498;2023-03-04T01:31:30;102966.28;;;5.24;72.31
60437;BME280;46289;51.992;4.498;2023-03-04T01:33:35;102959.47;;;5.33;71.80
60437;BME280;46289;51.992;4.498;2023-03-04T01:35:42;102954.13;;;5.26;71.90
60437;BME280;46289;51.992;4.498;2023-03-04T01:37:47;102954.13;;;5.26;72.48
60437;BME280;46289;51.992;4.498;2023-03-04T01:39:52;102955.00;;;5.25;72.11
60437;BME280;46289;51.992;4.498;2023-03-04T01:41:57;102949.84;;;5.28;71.97
60437;BME280;46289;51.992;4.498;2023-03-04T01:44:02;102952.41;;;5.25;72.13
60437;BME280;46289;51.992;4.498;2023-03-04T01:46:09;102949.78;;;5.25;72.23
60437;BME280;46289;51.992;4.498;2023-03-04T01:48:18;102947.25;;;5.32;71.83
60437;BME280;46289;51.992;4.498;2023-03-04T01:50:27;102947.25;;;5.32;72.09
60437;BME280;46289;51.992;4.498;2023-03-04T01:52:38;102945.44;;;5.24;72.10
60437;BME280;46289;51.992;4.498;2023-03-04T01:54:47;102945.44;;;5.24;72.31
60437;BME280;46289;51.992;4.498;2023-03-04T01:56:52;102941.00;;;5.19;72.51
60437;BME280;46289;51.992;4.498;2023-03-04T01:59:13;102934.91;;;5.18;72.76
60437;BME280;46289;51.992;4.498;2023-03-04T02:01:17;102934.84;;;5.14;72.96
60437;BME280;46289;51.992;4.498;2023-03-04T02:03:23;102928.81;;;5.18;72.68
60437;BME280;46289;51.992;4.498;2023-03-04T02:05:29;102927.94;;;5.17;73.15
60437;BME280;46289;51.992;4.498;2023-03-04T02:07:37;102925.41;;;5.22;73.02
60437;BME280;46289;51.992;4.498;2023-03-04T02:09:41;102925.41;;;5.22;73.05
60437;BME280;46289;51.992;4.498;2023-03-04T02:11:47;102926.25;;;5.21;73.02
60437;BME280;46289;51.992;4.498;2023-03-04T02:13:52;102913.22;;;5.21;73.41
60437;BME280;46289;51.992;4.498;2023-03-04T02:15:57;102914.91;;;5.17;73.62
60437;BME280;46289;51.992;4.498;2023-03-04T02:18:06;102913.19;;;5.18;73.96
60437;BME280;46289;51.992;4.498;2023-03-04T02:20:25;102915.81;;;5.21;73.81
60437;BME280;46289;51.992;4.498;2023-03-04T02:22:39;102904.56;;;5.23;73.29
60437;BME280;46289;51.992;4.498;2023-03-04T02:24:49;102908.00;;;5.19;73.22
60437;BME280;46289;51.992;4.498;2023-03-04T02:26:58;102905.47;;;5.25;72.99
60437;BME280;46289;51.992;4.498;2023-03-04T02:29:03;102901.06;;;5.20;73.48
60437;BME280;46289;51.992;4.498;2023-03-04T02:31:19;102907.03;;;5.13;73.41
60437;BME280;46289;51.992;4.498;2023-03-04T02:33:25;102905.28;;;5.12;73.33
60437;BME280;46289;51.992;4.498;2023-03-04T02:35:30;102897.41;;;5.10;73.28
60437;BME280;46289;51.992;4.498;2023-03-04T02:37:38;102904.44;;;5.14;73.15
60437;BME280;46289;51.992;4.498;2023-03-04T02:39:44;102899.28;;;5.17;73.49
60437;BME280;46289;51.992;4.498;2023-03-04T02:41:51;102888.84;;;5.17;73.27
60437;BME280;46289;51.992;4.498;2023-03-04T02:44:02;102888.88;;;5.19;73.03
60437;BME280;46289;51.992;4.498;2023-03-04T02:46:11;102881.94;;;5.19;72.99
60437;BME280;46289;51.992;4.498;2023-03-04T02:48:20;102889.72;;;5.18;72.61
60437;BME280;46289;51.992;4.498;2023-03-04T02:50:27;102887.03;;;5.13;72.97
60437;BME280;46289;51.992;4.498;2023-03-04T02:52:33;102891.31;;;5.08;73.11
60437;BME280;46289;51.992;4.498;2023-03-04T02:54:38;102884.34;;;5.07;72.93
60437;BME280;46289;51.992;4.498;2023-03-04T02:56:46;102891.31;;;5.08;73.21
60437;BME280;46289;51.992;4.498;2023-03-04T02:58:53;102891.31;;;5.08;72.66
60437;BME280;46289;51.992;4.498;2023-03-04T03:01:00;102886.09;;;5.08;72.98
60437;BME280;46289;51.992;4.498;2023-03-04T03:03:06;102884.38;;;5.09;72.51
60437;BME280;46289;51.992;4.498;2023-03-04T03:05:11;102883.56;;;5.11;72.70
60437;BME280;46289;51.992;4.498;2023-03-04T03:07:16;102878.34;;;5.11;72.48
60437;BME280;46289;51.992;4.498;2023-03-04T03:09:21;102879.19;;;5.10;72.84
60437;BME280;46289;51.992;4.498;2023-03-04T03:11:26;102880.91;;;5.10;73.24
60437;BME280;46289;51.992;4.498;2023-03-04T03:13:31;102885.28;;;5.12;73.13
60437;BME280;46289;51.992;4.498;2023-03-04T03:15:36;102874.84;;;5.11;73.21
60437;BME280;46289;51.992;4.498;2023-03-04T03:17:45;102885.22;;;5.06;73.34
60437;BME280;46289;51.992;4.498;2023-03-04T03:19:51;102879.97;;;5.03;73.69
60437;BME280;46289;51.992;4.498;2023-03-04T03:21:55;102886.91;;;5.04;73.87
60437;BME280;46289;51.992;4.498;2023-03-04T03:24:00;102881.69;;;5.04;73.99
60437;BME280;46289;51.992;4.498;2023-03-04T03:26:05;102881.69;;;5.04;73.51
60437;BME280;46289;51.992;4.498;2023-03-04T03:28:10;102883.44;;;5.05;73.40
60437;BME280;46289;51.992;4.498;2023-03-04T03:30:15;102881.66;;;5.01;73.67
60437;BME280;46289;51.992;4.498;2023-03-04T03:32:19;102879.06;;;5.01;73.59
60437;BME280;46289;51.992;4.498;2023-03-04T03:34:27;102872.94;;;4.99;73.45
60437;BME280;46289;51.992;4.498;2023-03-04T03:36:32;102880.78;;;5.00;73.35
60437;BME280;46289;51.992;4.498;2023-03-04T03:38:37;102871.31;;;5.07;72.82
60437;BME280;46289;51.992;4.498;2023-03-04T03:40:41;102877.41;;;5.07;72.49
60437;BME280;46289;51.992;4.498;2023-03-04T03:42:46;102880.88;;;5.08;72.99
60437;BME280;46289;51.992;4.498;2023-03-04T03:44:51;102878.22;;;5.05;72.80
60437;BME280;46289;51.992;4.498;2023-03-04T03:46:56;102882.63;;;5.07;72.97
60437;BME280;46289;51.992;4.498;2023-03-04T03:49:01;102885.19;;;5.03;73.31
60437;BME280;46289;51.992;4.498;2023-03-04T03:51:08;102872.16;;;5.04;73.14
60437;BME280;46289;51.992;4.498;2023-03-04T03:53:13;102875.59;;;5.02;72.85
60437;BME280;46289;51.992;4.498;2023-03-04T03:55:18;102874.72;;;5.01;72.91
60437;BME280;46289;51.992;4.498;2023-03-04T03:57:23;102880.78;;;5.02;73.39
60437;BME280;46289;51.992;4.498;2023-03-04T03:59:28;102875.66;;;5.06;73.09
60437;BME280;46289;51.992;4.498;2023-03-04T04:01:34;102877.41;;;5.06;72.96
60437;BME280;46289;51.992;4.498;2023-03-04T04:03:39;102879.03;;;4.99;73.61
60437;BME280;46289;51.992;4.498;2023-03-04T04:05:46;102884.22;;;4.99;73.44
60437;BME280;46289;51.992;4.498;2023-03-04T04:07:55;102885.09;;;5.00;73.60
60437;BME280;46289;51.992;4.498;2023-03-04T04:10:00;102879.09;;;5.04;73.27
60437;BME280;46289;51.992;4.498;2023-03-04T04:12:06;102886.88;;;5.02;73.35
60437;BME280;46289;51.992;4.498;2023-03-04T04:14:12;102886.88;;;5.01;72.78
60437;BME280;46289;51.992;4.498;2023-03-04T04:16:17;102884.28;;;5.02;73.22
60437;BME280;46289;51.992;4.498;2023-03-04T04:18:22;102888.66;;;5.05;72.72
60437;BME280;46289;51.992;4.498;2023-03-04T04:20:27;102890.38;;;5.03;72.86
60437;BME280;46289;51.992;4.498;2023-03-04T04:22:32;102883.44;;;5.03;73.35
60437;BME280;46289;51.992;4.498;2023-03-04T04:24:41;102879.19;;;5.09;73.68
60437;BME280;46289;51.992;4.498;2023-03-04T04:26:45;102876.53;;;5.07;73.80
60437;BME280;46289;51.992;4.498;2023-03-04T04:28:50;102882.53;;;5.01;74.31
60437;BME280;46289;51.992;4.498;2023-03-04T04:30:55;102886.00;;;5.02;74.12
60437;BME280;46289;51.992;4.498;2023-03-04T04:33:00;102875.59;;;5.02;74.09
60437;BME280;46289;51.992;4.498;2023-03-04T04:35:07;102885.06;;;4.97;74.80
60437;BME280;46289;51.992;4.498;2023-03-04T04:37:12;102879.81;;;4.94;74.63
60437;BME280;46289;51.992;4.498;2023-03-04T04:39:17;102893.75;;;4.96;74.69
60437;BME280;46289;51.992;4.498;2023-03-04T04:41:26;102896.31;;;4.93;74.85
60437;BME280;46289;51.992;4.498;2023-03-04T04:43:32;102877.16;;;4.92;73.88
60437;BME280;46289;51.992;4.498;2023-03-04T04:45:37;102891.06;;;4.91;74.39
60437;BME280;46289;51.992;4.498;2023-03-04T04:47:41;102891.88;;;4.87;74.63
60437;BME280;46289;51.992;4.498;2023-03-04T04:49:46;102891.94;;;4.92;73.93
60437;BME280;46289;51.992;4.498;2023-03-04T04:51:59;102883.28;;;4.94;73.46
60437;BME280;46289;51.992;4.498;2023-03-04T04:54:14;102890.19;;;4.91;73.27
60437;BME280;46289;51.992;4.498;2023-03-04T04:56:21;102885.75;;;4.87;72.90
60437;BME280;46289;51.992;4.498;2023-03-04T04:58:29;102887.53;;;4.89;72.88
60437;BME280;46289;51.992;4.498;2023-03-04T05:00:34;102894.44;;;4.86;72.79
60437;BME280;46289;51.992;4.498;2023-03-04T05:02:39;102890.97;;;4.85;72.83
60437;BME280;46289;51.992;4.498;2023-03-04T05:04:45;102901.38;;;4.85;73.19
60437;BME280;46289;51.992;4.498;2023-03-04T05:06:50;102894.41;;;4.84;72.99
60437;BME280;46289;51.992;4.498;2023-03-04T05:08:54;102890.00;;;4.81;73.49
60437;BME280;46289;51.992;4.498;2023-03-04T05:10:59;102893.50;;;4.80;73.47
60437;BME280;46289;51.992;4.498;2023-03-04T05:13:04;102888.28;;;4.80;73.65
60437;BME280;46289;51.992;4.498;2023-03-04T05:15:12;102886.53;;;4.79;74.08
60437;BME280;46289;51.992;4.498;2023-03-04T05:17:17;102889.16;;;4.81;73.82
60437;BME280;46289;51.992;4.498;2023-03-04T05:19:22;102889.16;;;4.81;74.38
60437;BME280;46289;51.992;4.498;2023-03-04T05:21:27;102890.84;;;4.77;74.39
60437;BME280;46289;51.992;4.498;2023-03-04T05:23:33;102881.25;;;4.76;74.80
60437;BME280;46289;51.992;4.498;2023-03-04T05:25:39;102888.19;;;4.76;75.00
60437;BME280;46289;51.992;4.498;2023-03-04T05:27:44;102892.50;;;4.74;75.40
60437;BME280;46289;51.992;4.498;2023-03-04T05:29:49;102886.44;;;4.75;75.40
60437;BME280;46289;51.992;4.498;2023-03-04T05:31:57;102886.53;;;4.79;75.80
60437;BME280;46289;51.992;4.498;2023-03-04T05:34:02;102892.56;;;4.78;76.46
60437;BME280;46289;51.992;4.498;2023-03-04T05:36:11;102891.75;;;4.79;76.87
60437;BME280;46289;51.992;4.498;2023-03-04T05:38:18;102886.50;;;4.78;76.99
60437;BME280;46289;51.992;4.498;2023-03-04T05:40:23;102884.75;;;4.78;77.26
60437;BME280;46289;51.992;4.498;2023-03-04T05:42:27;102887.38;;;4.77;77.12
60437;BME280;46289;51.992;4.498;2023-03-04T05:44:32;102894.28;;;4.76;77.65
60437;BME280;46289;51.992;4.498;2023-03-04T05:46:37;102889.94;;;4.75;77.47
60437;BME280;46289;51.992;4.498;2023-03-04T05:48:44;102888.19;;;4.76;77.55
60437;BME280;46289;51.992;4.498;2023-03-04T05:50:52;102887.31;;;4.75;77.87
60437;BME280;46289;51.992;4.498;2023-03-04T05:52:57;102876.88;;;4.74;77.64
60437;BME280;46289;51.992;4.498;2023-03-04T05:55:03;102876.88;;;4.72;78.17
60437;BME280;46289;51.992;4.498;2023-03-04T05:57:07;102880.34;;;4.73;77.96
60437;BME280;46289;51.992;4.498;2023-03-04T05:59:12;102884.75;;;4.77;77.91
60437;BME280;46289;51.992;4.498;2023-03-04T06:01:21;102873.47;;;4.78;77.80
60437;BME280;46289;51.992;4.498;2023-03-04T06:03:26;102871.81;;;4.83;77.30
60437;BME280;46289;51.992;4.498;2023-03-04T06:05:33;102877.91;;;4.82;77.54
60437;BME280;46289;51.992;4.498;2023-03-04T06:07:38;102874.38;;;4.81;77.50
60437;BME280;46289;51.992;4.498;2023-03-04T06:09:44;102874.38;;;4.81;77.60
60437;BME280;46289;51.992;4.498;2023-03-04T06:11:48;102877.81;;;4.77;77.70
60437;BME280;46289;51.992;4.498;2023-03-04T06:13:53;102878.69;;;4.78;77.74
60437;BME280;46289;51.992;4.498;2023-03-04T06:15:59;102872.59;;;4.77;77.49
60437;BME280;46289;51.992;4.498;2023-03-04T06:18:06;102877.06;;;4.84;77.79
60437;BME280;46289;51.992;4.498;2023-03-04T06:20:12;102883.13;;;4.83;77.96
60437;BME280;46289;51.992;4.498;2023-03-04T06:22:19;102884.88;;;4.86;78.16
60437;BME280;46289;51.992;4.498;2023-03-04T06:24:24;102890.06;;;4.83;78.63
60437;BME280;46289;51.992;4.498;2023-03-04T06:26:29;102887.44;;;4.83;79.13
60437;BME280;46289;51.992;4.498;2023-03-04T06:28:34;102889.97;;;4.77;79.16
60437;BME280;46289;51.992;4.498;2023-03-04T06:30:38;102893.34;;;4.73;79.36
60437;BME280;46289;51.992;4.498;2023-03-04T06:32:43;102887.31;;;4.75;79.85
60437;BME280;46289;51.992;4.498;2023-03-04T06:34:48;102889.03;;;4.73;80.48
60437;BME280;46289;51.992;4.498;2023-03-04T06:36:53;102893.41;;;4.74;80.50
60437;BME280;46289;51.992;4.498;2023-03-04T06:39:01;102897.66;;;4.71;80.89
60437;BME280;46289;51.992;4.498;2023-03-04T06:41:06;102890.72;;;4.70;81.04
60437;BME280;46289;51.992;4.498;2023-03-04T06:43:11;102883.81;;;4.72;81.44
60437;BME280;46289;51.992;4.498;2023-03-04T06:45:16;102888.09;;;4.71;81.53
60437;BME280;46289;51.992;4.498;2023-03-04T06:47:21;102895.91;;;4.70;81.42
60437;BME280;46289;51.992;4.498;2023-03-04T06:49:26;102902.91;;;4.72;81.68
60437;BME280;46289;51.992;4.498;2023-03-04T06:51:31;102901.16;;;4.73;81.97
60437;BME280;46289;51.992;4.498;2023-03-04T06:53:36;102892.50;;;4.72;81.87
60437;BME280;46289;51.992;4.498;2023-03-04T06:55:45;102889.84;;;4.71;82.26
60437;BME280;46289;51.992;4.498;2023-03-04T06:57:50;102902.91;;;4.74;82.04
60437;BME280;46289;51.992;4.498;2023-03-04T06:59:55;102902.03;;;4.73;82.35
60437;BME280;46289;51.992;4.498;2023-03-04T07:01:59;102910.72;;;4.74;82.21
60437;BME280;46289;51.992;4.498;2023-03-04T07:04:04;102897.75;;;4.75;81.98
60437;BME280;46289;51.992;4.498;2023-03-04T07:06:10;102909.94;;;4.78;82.22
60437;BME280;46289;51.992;4.498;2023-03-04T07:08:15;102905.66;;;4.81;81.51
60437;BME280;46289;51.992;4.498;2023-03-04T07:10:22;102911.03;;;4.91;81.04
60437;BME280;46289;51.992;4.498;2023-03-04T07:12:30;102911.13;;;4.97;80.27
60437;BME280;46289;51.992;4.498;2023-03-04T07:14:34;102901.59;;;4.99;80.39
60437;BME280;46289;51.992;4.498;2023-03-04T07:16:39;102909.44;;;5.00;79.54
60437;BME280;46289;51.992;4.498;2023-03-04T07:18:47;102908.59;;;5.01;79.08
60437;BME280;46289;51.992;4.498;2023-03-04T07:20:52;102908.59;;;5.01;79.33
60437;BME280;46289;51.992;4.498;2023-03-04T07:22:57;102915.53;;;5.02;79.18
60437;BME280;46289;51.992;4.498;2023-03-04T07:25:02;102917.31;;;5.03;78.85
60437;BME280;46289;51.992;4.498;2023-03-04T07:27:07;102927.72;;;5.03;79.49
60437;BME280;46289;51.992;4.498;2023-03-04T07:29:15;102915.44;;;4.96;81.14
60437;BME280;46289;51.992;4.498;2023-03-04T07:31:21;102931.13;;;4.99;82.18
60437;BME280;46289;51.992;4.498;2023-03-04T07:33:28;102933.59;;;4.92;83.25
60437;BME280;46289;51.992;4.498;2023-03-04T07:35:33;102925.00;;;4.96;83.61
60437;BME280;46289;51.992;4.498;2023-03-04T07:37:38;102927.63;;;4.97;83.96
60437;BME280;46289;51.992;4.498;2023-03-04T07:39:43;102932.00;;;5.00;84.03
60437;BME280;46289;51.992;4.498;2023-03-04T07:41:48;102932.00;;;5.00;83.81
60437;BME280;46289;51.992;4.498;2023-03-04T07:43:53;102932.00;;;5.00;83.61
60437;BME280;46289;51.992;4.498;2023-03-04T07:46:01;102937.13;;;4.94;84.55
60437;BME280;46289;51.992;4.498;2023-03-04T07:48:06;102933.78;;;5.01;84.15
60437;BME280;46289;51.992;4.498;2023-03-04T07:50:11;102936.56;;;5.13;83.95
60437;BME280;46289;51.992;4.498;2023-03-04T07:52:18;102942.72;;;5.18;84.17
60437;BME280;46289;51.992;4.498;2023-03-04T07:54:23;102942.84;;;5.26;84.15
60437;BME280;46289;51.992;4.498;2023-03-04T07:56:29;102949.03;;;5.34;83.69
60437;BME280;46289;51.992;4.498;2023-03-04T07:58:35;102956.84;;;5.33;83.48
60437;BME280;46289;51.992;4.498;2023-03-04T08:00:40;102951.66;;;5.33;84.00
60437;BME280;46289;51.992;4.498;2023-03-04T08:02:48;102952.44;;;5.28;84.44
60437;BME280;46289;51.992;4.498;2023-03-04T08:04:53;102957.75;;;5.35;85.22
60437;BME280;46289;51.992;4.498;2023-03-04T08:07:00;102956.03;;;5.35;84.66
60437;BME280;46289;51.992;4.498;2023-03-04T08:09:06;102954.28;;;5.36;84.48
60437;BME280;46289;51.992;4.498;2023-03-04T08:11:13;102952.63;;;5.41;84.37
60437;BME280;46289;51.992;4.498;2023-03-04T08:13:18;102938.03;;;5.54;84.28
60437;BME280;46289;51.992;4.498;2023-03-04T08:15:26;102941.75;;;5.71;83.71
60437;BME280;46289;51.992;4.498;2023-03-04T08:17:34;102936.41;;;5.62;83.56
60437;BME280;46289;51.992;4.498;2023-03-04T08:19:41;102941.72;;;5.66;83.88
60437;BME280;46289;51.992;4.498;2023-03-04T08:21:47;102943.63;;;5.80;82.99
60437;BME280;46289;51.992;4.498;2023-03-04T08:23:53;102946.19;;;5.78;83.01
60437;BME280;46289;51.992;4.498;2023-03-04T08:25:58;102939.34;;;5.86;82.70
60437;BME280;46289;51.992;4.498;2023-03-04T08:28:03;102942.13;;;5.97;82.30
60437;BME280;46289;51.992;4.498;2023-03-04T08:30:09;102945.06;;;6.25;81.02
60437;BME280;46289;51.992;4.498;2023-03-04T08:32:14;102942.50;;;6.28;81.17
60437;BME280;46289;51.992;4.498;2023-03-04T08:34:21;102942.53;;;6.34;80.66
60437;BME280;46289;51.992;4.498;2023-03-04T08:36:29;102941.59;;;6.24;79.76
60437;BME280;46289;51.992;4.498;2023-03-04T08:38:34;102939.19;;;6.43;79.31
60437;BME280;46289;51.992;4.498;2023-03-04T08:40:38;102937.50;;;6.52;78.51
60437;BME280;46289;51.992;4.498;2023-03-04T08:42:43;102939.47;;;6.76;78.05
60437;BME280;46289;51.992;4.498;2023-03-04T08:44:48;102937.78;;;6.80;78.21
60437;BME280;46289;51.992;4.498;2023-03-04T08:46:52;102941.97;;;6.61;78.94
60437;BME280;46289;51.992;4.498;2023-03-04T08:48:57;102949.56;;;6.38;81.07
60437;BME280;46289;51.992;4.498;2023-03-04T08:51:06;102946.59;;;6.06;83.78
60437;BME280;46289;51.992;4.498;2023-03-04T08:53:14;102947.38;;;6.00;84.76
60437;BME280;46289;51.992;4.498;2023-03-04T08:55:19;102948.00;;;5.82;86.62
60437;BME280;46289;51.992;4.498;2023-03-04T08:57:24;102947.09;;;5.82;87.50
60437;BME280;46289;51.992;4.498;2023-03-04T08:59:29;102944.34;;;5.69;87.89
60437;BME280;46289;51.992;4.498;2023-03-04T09:01:33;102939.91;;;5.62;88.45
60437;BME280;46289;51.992;4.498;2023-03-04T09:03:39;102934.75;;;5.68;88.91
60437;BME280;46289;51.992;4.498;2023-03-04T09:05:45;102941.91;;;5.83;88.77
60437;BME280;46289;51.992;4.498;2023-03-04T09:07:50;102941.09;;;5.86;88.01
60437;BME280;46289;51.992;4.498;2023-03-04T09:09:57;102936.03;;;5.97;87.10
60437;BME280;46289;51.992;4.498;2023-03-04T09:12:04;102933.66;;;6.18;86.17
60437;BME280;46289;51.992;4.498;2023-03-04T09:14:08;102934.59;;;6.23;85.12
60437;BME280;46289;51.992;4.498;2023-03-04T09:16:14;102927.84;;;6.41;84.95
60437;BME280;46289;51.992;4.498;2023-03-04T09:18:21;102932.63;;;6.85;84.17
60437;BME280;46289;51.992;4.498;2023-03-04T09:20:26;102924.78;;;6.86;83.36
60437;BME280;46289;51.992;4.498;2023-03-04T09:22:30;102920.56;;;7.05;82.78
60437;BME280;46289;51.992;4.498;2023-03-04T09:24:35;102913.56;;;7.02;81.79
60437;BME280;46289;51.992;4.498;2023-03-04T09:26:42;102918.72;;;6.90;82.21
60437;BME280;46289;51.992;4.498;2023-03-04T09:28:49;102919.84;;;7.24;82.10
60437;BME280;46289;51.992;4.498;2023-03-04T09:30:54;102913.97;;;7.67;81.62
60437;BME280;46289;51.992;4.498;2023-03-04T09:32:59;102913.91;;;7.58;79.27
60437;BME280;46289;51.992;4.498;2023-03-04T09:35:05;102914.06;;;7.85;78.76
60437;BME280;46289;51.992;4.498;2023-03-04T09:37:10;102907.91;;;7.79;78.25
60437;BME280;46289;51.992;4.498;2023-03-04T09:39:15;102920.81;;;7.37;80.26
60437;BME280;46289;51.992;4.498;2023-03-04T09:41:22;102917.16;;;7.17;80.21
60437;BME280;46289;51.992;4.498;2023-03-04T09:43:30;102923.38;;;7.30;80.45
60437;BME280;46289;51.992;4.498;2023-03-04T09:45:40;102912.97;;;7.40;80.60
60437;BME280;46289;51.992;4.498;2023-03-04T09:47:51;102917.25;;;7.31;80.06
60437;BME280;46289;51.992;4.498;2023-03-04T09:49:59;102917.16;;;7.17;80.08
60437;BME280;46289;51.992;4.498;2023-03-04T09:52:11;102918.97;;;7.29;79.25
60437;BME280;46289;51.992;4.498;2023-03-04T09:54:29;102920.06;;;7.61;78.42
60437;BME280;46289;51.992;4.498;2023-03-04T09:56:41;102910.50;;;7.71;79.12
60437;BME280;46289;51.992;4.498;2023-03-04T09:58:56;102913.03;;;7.51;78.56
60437;BME280;46289;51.992;4.498;2023-03-04T10:01:10;102912.84;;;7.22;79.60
60437;BME280;46289;51.992;4.498;2023-03-04T10:03:17;102914.50;;;7.09;78.93
60437;BME280;46289;51.992;4.498;2023-03-04T10:05:25;102909.16;;;6.94;80.74
60437;BME280;46289;51.992;4.498;2023-03-04T10:07:35;102916.06;;;6.89;82.30
60437;BME280;46289;51.992;4.498;2023-03-04T10:09:46;102916.94;;;6.86;82.59
60437;BME280;46289;51.992;4.498;2023-03-04T10:12:00;102919.47;;;6.78;83.23
60437;BME280;46289;51.992;4.498;2023-03-04T10:14:31;102922.00;;;6.68;83.28
60437;BME280;46289;51.992;4.498;2023-03-04T10:16:40;102932.53;;;6.77;83.72
60437;BME280;46289;51.992;4.498;2023-03-04T10:18:50;102922.94;;;6.79;83.84
60437;BME280;46289;51.992;4.498;2023-03-04T10:20:59;102926.56;;;6.93;83.17
60437;BME280;46289;51.992;4.498;2023-03-04T10:23:10;102921.25;;;6.82;83.75
60437;BME280;46289;51.992;4.498;2023-03-04T10:25:20;102924.50;;;6.57;84.86
60437;BME280;46289;51.992;4.498;2023-03-04T10:27:26;102922.78;;;6.59;86.23
60437;BME280;46289;51.992;4.498;2023-03-04T10:29:35;102924.25;;;6.29;86.70
60437;BME280;46289;51.992;4.498;2023-03-04T10:31:40;102920.25;;;6.67;86.16
60437;BME280;46289;51.992;4.498;2023-03-04T10:33:45;102916.13;;;6.96;84.92
60437;BME280;46289;51.992;4.498;2023-03-04T10:35:54;102912.94;;;7.39;83.32
60437;BME280;46289;51.992;4.498;2023-03-04T10:38:01;102915.75;;;7.73;81.78
60437;BME280;46289;51.992;4.498;2023-03-04T10:40:17;102917.59;;;7.94;80.54
60437;BME280;46289;51.992;4.498;2023-03-04T10:42:27;102915.84;;;7.99;80.27
60437;BME280;46289;51.992;4.498;2023-03-04T10:44:43;102917.63;;;8.06;78.76
60437;BME280;46289;51.992;4.498;2023-03-04T10:46:56;102909.69;;;7.80;78.07
60437;BME280;46289;51.992;4.498;2023-03-04T10:49:01;102900.91;;;7.70;77.70
60437;BME280;46289;51.992;4.498;2023-03-04T10:51:12;102907.19;;;8.12;77.22
60437;BME280;46289;51.992;4.498;2023-03-04T10:53:29;102893.25;;;8.30;76.31
60437;BME280;46289;51.992;4.498;2023-03-04T10:55:43;102898.47;;;8.28;76.53
60437;BME280;46289;51.992;4.498;2023-03-04T10:57:49;102893.31;;;8.56;76.17
60437;BME280;46289;51.992;4.498;2023-03-04T11:00:03;102903.69;;;8.21;75.64
60437;BME280;46289;51.992;4.498;2023-03-04T11:02:25;102896.75;;;8.24;75.40
60437;BME280;46289;51.992;4.498;2023-03-04T11:04:33;102889.66;;;7.93;76.86
60437;BME280;46289;51.992;4.498;2023-03-04T11:06:39;102894.91;;;8.05;77.00
60437;BME280;46289;51.992;4.498;2023-03-04T11:08:52;102889.72;;;8.17;77.00
60437;BME280;46289;51.992;4.498;2023-03-04T11:10:57;102886.22;;;8.12;75.90